createdAt,value
2018-03-02T00:00:18.330Z,998.92
2018-03-02T00:01:18.379Z,998.91
2018-03-02T00:02:18.328Z,998.90
2018-03-02T00:03:18.334Z,998.87
2018-03-02T00:04:18.330Z,998.89
2018-03-02T00:05:18.331Z,998.83
2018-03-02T00:06:18.333Z,998.83
2018-03-02T00:07:18.328Z,998.79
2018-03-02T00:08:18.332Z,998.80
2018-03-02T00:09:18.322Z,998.78
2018-03-02T00:10:18.323Z,998.72
2018-03-02T00:11:18.371Z,998.82
2018-03-02T00:12:18.326Z,998.72
2018-03-02T00:13:18.333Z,998.75
2018-03-02T00:14:18.324Z,998.78
2018-03-02T00:15:18.334Z,998.76
2018-03-02T00:16:18.329Z,998.72
2018-03-02T00:17:18.326Z,998.66
2018-03-02T00:18:18.326Z,998.62
2018-03-02T00:19:18.348Z,998.64
2018-03-02T00:20:18.346Z,998.57
2018-03-02T00:21:18.386Z,998.61
2018-03-02T00:22:18.321Z,998.55
2018-03-02T00:23:18.316Z,998.60
2018-03-02T00:24:18.321Z,998.58
2018-03-02T00:25:18.334Z,998.58
2018-03-02T00:26:18.326Z,998.55
2018-03-02T00:27:18.380Z,998.56
2018-03-02T00:28:18.326Z,998.40
2018-03-02T00:29:18.318Z,998.58
2018-03-02T00:30:18.323Z,998.51
2018-03-02T00:31:18.311Z,998.56
2018-03-02T00:32:18.342Z,998.54
2018-03-02T00:33:18.327Z,998.49
2018-03-02T00:34:18.324Z,998.55
2018-03-02T00:35:18.304Z,998.49
2018-03-02T00:36:18.314Z,998.48
2018-03-02T00:37:18.316Z,998.54
2018-03-02T00:38:18.320Z,998.53
2018-03-02T00:39:18.313Z,998.54
2018-03-02T00:40:18.368Z,998.54
2018-03-02T00:41:18.315Z,998.52
2018-03-02T00:42:18.316Z,998.59
2018-03-02T00:43:18.315Z,998.53
2018-03-02T00:44:18.311Z,998.50
2018-03-02T00:45:18.318Z,998.50
2018-03-02T00:46:18.312Z,998.44
2018-03-02T00:47:18.309Z,998.45
2018-03-02T00:48:18.313Z,998.37
2018-03-02T00:49:18.302Z,998.39
2018-03-02T00:50:18.305Z,998.37
2018-03-02T00:51:18.305Z,998.37
2018-03-02T00:52:18.308Z,998.32
2018-03-02T00:53:18.323Z,998.31
2018-03-02T00:54:18.325Z,998.31
2018-03-02T00:55:18.324Z,998.35
2018-03-02T00:56:18.300Z,998.32
2018-03-02T00:57:18.306Z,998.30
2018-03-02T00:58:18.314Z,998.38
2018-03-02T00:59:18.320Z,998.30
2018-03-02T01:00:18.303Z,998.34
2018-03-02T01:01:18.316Z,998.30
2018-03-02T01:02:18.297Z,998.31
2018-03-02T01:03:18.292Z,998.27
2018-03-02T01:04:18.298Z,998.28
2018-03-02T01:05:18.297Z,998.25
2018-03-02T01:06:18.303Z,998.24
2018-03-02T01:07:18.304Z,998.25
2018-03-02T01:08:18.316Z,998.26
2018-03-02T01:09:18.300Z,998.22
2018-03-02T01:10:18.299Z,998.24
2018-03-02T01:11:18.385Z,998.24
2018-03-02T01:12:18.319Z,998.22
2018-03-02T01:13:18.283Z,998.23
2018-03-02T01:14:18.310Z,998.21
2018-03-02T01:15:18.326Z,998.20
2018-03-02T01:16:18.288Z,998.22
2018-03-02T01:17:18.338Z,998.16
2018-03-02T01:18:18.303Z,998.06
2018-03-02T01:19:18.297Z,998.11
2018-03-02T01:20:18.287Z,998.13
2018-03-02T01:21:18.296Z,998.08
2018-03-02T01:22:18.312Z,998.06
2018-03-02T01:23:18.291Z,998.16
2018-03-02T01:24:18.291Z,998.12
2018-03-02T01:25:18.289Z,998.14
2018-03-02T01:26:18.292Z,998.24
2018-03-02T01:27:18.307Z,998.19
2018-03-02T01:28:18.319Z,998.17
2018-03-02T01:29:18.278Z,998.16
2018-03-02T01:30:18.297Z,998.13
2018-03-02T01:31:18.303Z,998.11
2018-03-02T01:32:18.289Z,998.07
2018-03-02T01:33:18.290Z,998.10
2018-03-02T01:34:18.344Z,998.02
2018-03-02T01:35:18.286Z,998.07
2018-03-02T01:36:18.295Z,998.03
2018-03-02T01:37:18.290Z,998.03
2018-03-02T01:38:18.288Z,998.03
2018-03-02T01:39:18.287Z,998.02
2018-03-02T01:40:18.295Z,997.96
2018-03-02T01:41:18.278Z,997.98
2018-03-02T01:42:18.305Z,997.94
2018-03-02T01:43:18.299Z,997.93
2018-03-02T01:44:18.273Z,997.81
2018-03-02T01:45:18.294Z,997.82
2018-03-02T01:46:18.283Z,997.79
2018-03-02T01:47:18.277Z,997.77
2018-03-02T01:48:18.279Z,997.70
2018-03-02T01:49:18.273Z,997.77
2018-03-02T01:50:18.296Z,997.74
2018-03-02T01:51:18.270Z,997.69
2018-03-02T01:52:18.311Z,997.71
2018-03-02T01:53:18.279Z,997.68
2018-03-02T01:54:18.280Z,997.65
2018-03-02T01:55:18.278Z,997.63
2018-03-02T01:56:18.280Z,997.68
2018-03-02T01:57:18.259Z,997.67
2018-03-02T01:58:18.295Z,997.69
2018-03-02T01:59:18.271Z,997.70
2018-03-02T02:00:18.269Z,997.71
2018-03-02T02:01:18.255Z,997.65
2018-03-02T02:02:18.264Z,997.68
2018-03-02T02:03:18.282Z,997.69
2018-03-02T02:04:18.263Z,997.66
2018-03-02T02:05:18.279Z,997.70
2018-03-02T02:06:18.281Z,997.68
2018-03-02T02:07:18.259Z,997.72
2018-03-02T02:08:18.254Z,997.66
2018-03-02T02:09:18.272Z,997.63
2018-03-02T02:10:18.259Z,997.61
2018-03-02T02:11:18.268Z,997.69
2018-03-02T02:12:18.281Z,997.64
2018-03-02T02:13:18.268Z,997.65
2018-03-02T02:14:18.255Z,997.67
2018-03-02T02:15:18.264Z,997.64
2018-03-02T02:16:18.251Z,997.66
2018-03-02T02:17:18.257Z,997.64
2018-03-02T02:18:18.261Z,997.66
2018-03-02T02:19:18.255Z,997.65
2018-03-02T02:20:18.250Z,997.57
2018-03-02T02:21:18.245Z,997.60
2018-03-02T02:22:18.252Z,997.64
2018-03-02T02:23:18.267Z,997.55
2018-03-02T02:24:18.273Z,997.56
2018-03-02T02:25:18.274Z,997.54
2018-03-02T02:26:18.242Z,997.58
2018-03-02T02:27:18.239Z,997.52
2018-03-02T02:28:18.247Z,997.55
2018-03-02T02:29:18.251Z,997.55
2018-03-02T02:30:18.247Z,997.54
2018-03-02T02:31:18.256Z,997.53
2018-03-02T02:32:18.240Z,997.48
2018-03-02T02:33:18.250Z,997.46
2018-03-02T02:34:18.241Z,997.48
2018-03-02T02:35:18.250Z,997.42
2018-03-02T02:36:18.242Z,997.40
2018-03-02T02:37:18.241Z,997.40
2018-03-02T02:38:18.276Z,997.38
2018-03-02T02:39:18.235Z,997.35
2018-03-02T02:40:18.255Z,997.30
2018-03-02T02:41:18.241Z,997.32
2018-03-02T02:42:18.283Z,997.33
2018-03-02T02:43:18.231Z,997.33
2018-03-02T02:44:18.243Z,997.35
2018-03-02T02:45:18.236Z,997.30
2018-03-02T02:46:18.235Z,997.28
2018-03-02T02:47:18.229Z,997.36
2018-03-02T02:48:18.224Z,997.28
2018-03-02T02:49:18.240Z,997.26
2018-03-02T02:50:18.250Z,997.30
2018-03-02T02:51:18.236Z,997.31
2018-03-02T02:52:18.224Z,997.31
2018-03-02T02:53:18.220Z,997.32
2018-03-02T02:54:18.227Z,997.30
2018-03-02T02:55:18.278Z,997.29
2018-03-02T02:56:18.225Z,997.27
2018-03-02T02:57:18.269Z,997.28
2018-03-02T02:58:18.236Z,997.28
2018-03-02T02:59:18.241Z,997.29
2018-03-02T03:00:18.214Z,997.31
2018-03-02T03:01:18.222Z,997.33
2018-03-02T03:02:18.224Z,997.37
2018-03-02T03:03:18.220Z,997.29
2018-03-02T03:04:18.222Z,997.35
2018-03-02T03:05:18.227Z,997.36
2018-03-02T03:06:18.210Z,997.34
2018-03-02T03:07:18.213Z,997.36
2018-03-02T03:08:18.235Z,997.28
2018-03-02T03:09:18.223Z,997.33
2018-03-02T03:10:18.235Z,997.33
2018-03-02T03:11:18.237Z,997.26
2018-03-02T03:12:18.206Z,997.28
2018-03-02T03:13:18.204Z,997.22
2018-03-02T03:14:18.200Z,997.21
2018-03-02T03:15:18.221Z,997.17
2018-03-02T03:16:18.221Z,997.23
2018-03-02T03:17:18.216Z,997.20
2018-03-02T03:18:18.227Z,997.22
2018-03-02T03:19:18.201Z,997.18
2018-03-02T03:20:18.200Z,997.17
2018-03-02T03:21:18.202Z,997.18
2018-03-02T03:22:18.215Z,997.19
2018-03-02T03:23:18.203Z,997.10
2018-03-02T03:24:18.197Z,997.16
2018-03-02T03:25:18.211Z,997.11
2018-03-02T03:26:18.212Z,997.09
2018-03-02T03:27:18.193Z,997.13
2018-03-02T03:28:18.208Z,997.10
2018-03-02T03:29:18.194Z,997.05
2018-03-02T03:30:18.199Z,997.10
2018-03-02T03:31:18.197Z,997.07
2018-03-02T03:32:18.194Z,997.06
2018-03-02T03:33:18.193Z,997.04
2018-03-02T03:34:18.187Z,996.97
2018-03-02T03:35:18.185Z,997.03
2018-03-02T03:36:18.219Z,996.96
2018-03-02T03:37:18.211Z,997.01
2018-03-02T03:38:18.190Z,997.00
2018-03-02T03:39:18.227Z,996.98
2018-03-02T03:40:18.183Z,996.97
2018-03-02T03:41:18.193Z,997.01
2018-03-02T03:42:18.256Z,996.96
2018-03-02T03:43:18.175Z,996.90
2018-03-02T03:44:18.176Z,996.96
2018-03-02T03:45:18.184Z,996.82
2018-03-02T03:46:18.191Z,996.86
2018-03-02T03:47:18.182Z,996.86
2018-03-02T03:48:18.182Z,996.83
2018-03-02T03:49:18.188Z,996.85
2018-03-02T03:50:18.166Z,996.82
2018-03-02T03:51:18.201Z,996.81
2018-03-02T03:52:18.215Z,996.84
2018-03-02T03:53:18.179Z,996.82
2018-03-02T03:54:18.183Z,996.80
2018-03-02T03:55:18.163Z,996.83
2018-03-02T03:56:18.161Z,996.80
2018-03-02T03:57:18.159Z,996.81
2018-03-02T03:58:18.163Z,996.70
2018-03-02T03:59:18.195Z,996.81
2018-03-02T04:00:18.163Z,996.78
2018-03-02T04:01:18.155Z,996.79
2018-03-02T04:02:18.160Z,996.76
2018-03-02T04:03:18.161Z,996.76
2018-03-02T04:04:18.166Z,996.81
2018-03-02T04:05:18.154Z,996.78
2018-03-02T04:06:18.147Z,996.72
2018-03-02T04:07:18.157Z,996.71
2018-03-02T04:08:18.151Z,996.65
2018-03-02T04:09:18.158Z,996.78
2018-03-02T04:10:18.214Z,996.72
2018-03-02T04:11:18.156Z,996.70
2018-03-02T04:12:18.150Z,996.68
2018-03-02T04:13:18.180Z,996.74
2018-03-02T04:14:18.159Z,996.69
2018-03-02T04:15:18.139Z,996.70
2018-03-02T04:16:18.153Z,996.75
2018-03-02T04:17:18.150Z,996.67
2018-03-02T04:18:18.141Z,996.69
2018-03-02T04:19:18.138Z,996.65
2018-03-02T04:20:18.148Z,996.65
2018-03-02T04:21:18.141Z,996.69
2018-03-02T04:22:18.132Z,996.66
2018-03-02T04:23:18.180Z,996.65
2018-03-02T04:24:18.131Z,996.65
2018-03-02T04:25:18.137Z,996.63
2018-03-02T04:26:18.997Z,996.56
2018-03-02T04:27:18.133Z,996.59
2018-03-02T04:28:18.126Z,996.57
2018-03-02T04:29:18.128Z,996.50
2018-03-02T04:30:18.125Z,996.52
2018-03-02T04:31:18.138Z,996.54
2018-03-02T04:32:18.129Z,996.56
2018-03-02T04:33:18.123Z,996.57
2018-03-02T04:34:18.131Z,996.63
2018-03-02T04:35:18.148Z,996.58
2018-03-02T04:36:18.152Z,996.62
2018-03-02T04:37:18.174Z,996.58
2018-03-02T04:38:18.109Z,996.59
2018-03-02T04:39:18.112Z,996.56
2018-03-02T04:40:18.119Z,996.55
2018-03-02T04:41:18.144Z,996.59
2018-03-02T04:42:18.109Z,996.59
2018-03-02T04:43:18.112Z,996.61
2018-03-02T04:44:18.126Z,996.61
2018-03-02T04:45:18.103Z,996.59
2018-03-02T04:46:18.112Z,996.58
2018-03-02T04:47:18.119Z,996.59
2018-03-02T04:48:18.122Z,996.58
2018-03-02T04:49:18.107Z,996.55
2018-03-02T04:50:18.106Z,996.54
2018-03-02T04:51:18.095Z,996.59
2018-03-02T04:52:18.110Z,996.55
2018-03-02T04:53:18.089Z,996.54
2018-03-02T04:54:18.103Z,996.62
2018-03-02T04:55:18.094Z,996.52
2018-03-02T04:56:18.101Z,996.53
2018-03-02T04:57:18.182Z,996.52
2018-03-02T04:58:18.101Z,996.47
2018-03-02T04:59:18.080Z,996.44
2018-03-02T05:00:18.084Z,996.48
2018-03-02T05:01:18.104Z,996.51
2018-03-02T05:02:18.100Z,996.48
2018-03-02T05:03:18.095Z,996.50
2018-03-02T05:04:18.081Z,996.43
2018-03-02T05:05:18.094Z,996.47
2018-03-02T05:06:18.073Z,996.48
2018-03-02T05:07:18.076Z,996.42
2018-03-02T05:08:18.075Z,996.51
2018-03-02T05:09:18.091Z,996.51
2018-03-02T05:10:18.079Z,996.54
2018-03-02T05:11:18.104Z,996.45
2018-03-02T05:12:18.066Z,996.47
2018-03-02T05:13:18.096Z,996.41
2018-03-02T05:14:18.066Z,996.47
2018-03-02T05:15:18.074Z,996.44
2018-03-02T05:16:18.067Z,996.42
2018-03-02T05:17:18.063Z,996.45
2018-03-02T05:18:18.061Z,996.44
2018-03-02T05:19:18.065Z,996.42
2018-03-02T05:20:18.071Z,996.45
2018-03-02T05:21:18.057Z,996.41
2018-03-02T05:22:18.052Z,996.43
2018-03-02T05:23:18.982Z,996.40
2018-03-02T05:24:18.052Z,996.40
2018-03-02T05:25:18.067Z,996.36
2018-03-02T05:26:18.054Z,996.27
2018-03-02T05:27:18.050Z,996.34
2018-03-02T05:28:18.048Z,996.31
2018-03-02T05:29:18.042Z,996.28
2018-03-02T05:30:18.045Z,996.29
2018-03-02T05:31:18.036Z,996.27
2018-03-02T05:32:18.051Z,996.25
2018-03-02T05:33:18.045Z,996.20
2018-03-02T05:34:18.042Z,996.19
2018-03-02T05:35:18.041Z,996.21
2018-03-02T05:36:18.025Z,996.21
2018-03-02T05:37:18.034Z,996.21
2018-03-02T05:38:18.044Z,996.11
2018-03-02T05:39:18.036Z,996.16
2018-03-02T05:40:18.029Z,996.14
2018-03-02T05:41:18.029Z,996.15
2018-03-02T05:42:18.022Z,996.17
2018-03-02T05:43:18.025Z,996.09
2018-03-02T05:44:18.081Z,996.11
2018-03-02T05:45:18.035Z,996.07
2018-03-02T05:46:18.039Z,996.11
2018-03-02T05:47:18.019Z,996.01
2018-03-02T05:48:18.026Z,996.04
2018-03-02T05:49:18.018Z,996.05
2018-03-02T05:50:18.019Z,996.07
2018-03-02T05:51:18.029Z,996.04
2018-03-02T05:52:18.021Z,996.06
2018-03-02T05:53:18.026Z,996.09
2018-03-02T05:54:18.011Z,996.04
2018-03-02T05:55:18.013Z,996.09
2018-03-02T05:56:18.010Z,996.03
2018-03-02T05:57:18.018Z,996.04
2018-03-02T05:58:18.011Z,996.01
2018-03-02T05:59:18.005Z,996.07
2018-03-02T06:00:18.024Z,995.99
2018-03-02T06:01:17.988Z,995.96
2018-03-02T06:02:17.994Z,996.00
2018-03-02T06:03:18.004Z,995.93
2018-03-02T06:04:18.004Z,995.94
2018-03-02T06:05:17.997Z,995.95
2018-03-02T06:06:17.993Z,995.96
2018-03-02T06:07:18.007Z,995.87
2018-03-02T06:08:17.990Z,995.95
2018-03-02T06:09:17.987Z,995.95
2018-03-02T06:10:18.048Z,995.96
2018-03-02T06:11:17.990Z,996.00
2018-03-02T06:12:17.983Z,995.95
2018-03-02T06:13:17.983Z,996.01
2018-03-02T06:14:17.971Z,996.03
2018-03-02T06:15:17.976Z,996.03
2018-03-02T06:16:17.991Z,995.98
2018-03-02T06:17:17.977Z,996.00
2018-03-02T06:18:17.970Z,995.98
2018-03-02T06:19:17.989Z,996.04
2018-03-02T06:20:17.985Z,995.98
2018-03-02T06:21:17.970Z,995.98
2018-03-02T06:22:17.963Z,996.00
2018-03-02T06:23:18.017Z,995.99
2018-03-02T06:24:17.962Z,996.03
2018-03-02T06:25:17.966Z,996.01
2018-03-02T06:26:17.960Z,996.03
2018-03-02T06:27:17.954Z,995.97
2018-03-02T06:28:17.969Z,995.99
2018-03-02T06:29:17.951Z,996.00
2018-03-02T06:30:17.974Z,995.97
2018-03-02T06:31:17.958Z,995.97
2018-03-02T06:32:17.960Z,996.04
2018-03-02T06:33:17.958Z,996.01
2018-03-02T06:34:17.947Z,995.99
2018-03-02T06:35:17.985Z,996.00
2018-03-02T06:36:17.946Z,996.03
2018-03-02T06:37:17.944Z,995.95
2018-03-02T06:38:17.952Z,996.01
2018-03-02T06:39:17.944Z,995.98
2018-03-02T06:40:17.967Z,996.01
2018-03-02T06:41:18.058Z,995.94
2018-03-02T06:42:17.958Z,995.91
2018-03-02T06:43:17.931Z,995.92
2018-03-02T06:44:17.946Z,995.82
2018-03-02T06:45:17.960Z,995.83
2018-03-02T06:46:17.927Z,995.85
2018-03-02T06:47:17.972Z,995.86
2018-03-02T06:48:17.944Z,995.81
2018-03-02T06:49:17.927Z,995.89
2018-03-02T06:50:17.926Z,995.79
2018-03-02T06:51:17.956Z,995.80
2018-03-02T06:52:17.933Z,995.82
2018-03-02T06:53:17.931Z,995.79
2018-03-02T06:54:18.017Z,995.83
2018-03-02T06:55:17.922Z,995.76
2018-03-02T06:56:17.919Z,995.77
2018-03-02T06:57:17.941Z,995.76
2018-03-02T06:58:17.914Z,995.76
2018-03-02T06:59:17.913Z,995.68
2018-03-02T07:00:17.914Z,995.69
2018-03-02T07:01:17.909Z,995.67
2018-03-02T07:02:17.926Z,995.71
2018-03-02T07:03:17.935Z,995.66
2018-03-02T07:04:17.959Z,995.67
2018-03-02T07:05:17.913Z,995.66
2018-03-02T07:06:17.915Z,995.69
2018-03-02T07:07:17.940Z,995.64
2018-03-02T07:08:17.919Z,995.65
2018-03-02T07:09:17.913Z,995.60
2018-03-02T07:10:17.916Z,995.66
2018-03-02T07:11:17.919Z,995.60
2018-03-02T07:12:17.916Z,995.55
2018-03-02T07:13:17.923Z,995.66
2018-03-02T07:14:17.908Z,995.67
2018-03-02T07:15:17.916Z,995.59
2018-03-02T07:16:17.913Z,995.58
2018-03-02T07:17:17.934Z,995.56
2018-03-02T07:18:17.928Z,995.54
2018-03-02T07:19:17.914Z,995.53
2018-03-02T07:20:17.976Z,995.55
2018-03-02T07:21:17.940Z,995.56
2018-03-02T07:22:17.913Z,995.60
2018-03-02T07:23:17.904Z,995.52
2018-03-02T07:24:17.903Z,995.54
2018-03-02T07:25:17.957Z,995.54
2018-03-02T07:26:17.909Z,995.55
2018-03-02T07:27:17.907Z,995.47
2018-03-02T07:28:17.917Z,995.55
2018-03-02T07:29:17.909Z,995.57
2018-03-02T07:30:17.910Z,995.53
2018-03-02T07:31:17.916Z,995.58
2018-03-02T07:32:17.902Z,995.56
2018-03-02T07:33:17.911Z,995.51
2018-03-02T07:34:17.916Z,995.62
2018-03-02T07:35:17.915Z,995.59
2018-03-02T07:36:17.912Z,995.58
2018-03-02T07:37:17.914Z,995.56
2018-03-02T07:38:18.053Z,995.56
2018-03-02T07:39:17.911Z,995.59
2018-03-02T07:40:17.996Z,995.59
2018-03-02T07:41:17.954Z,995.56
2018-03-02T07:42:17.911Z,995.57
2018-03-02T07:43:17.921Z,995.52
2018-03-02T07:44:17.937Z,995.61
2018-03-02T07:45:17.918Z,995.60
2018-03-02T07:46:17.924Z,995.59
2018-03-02T07:47:17.927Z,995.60
2018-03-02T07:48:17.935Z,995.58
2018-03-02T07:49:17.928Z,995.64
2018-03-02T07:50:17.931Z,995.57
2018-03-02T07:51:17.978Z,995.59
2018-03-02T07:52:17.957Z,995.58
2018-03-02T07:53:17.949Z,995.52
2018-03-02T07:54:18.000Z,995.55
2018-03-02T07:55:17.954Z,995.56
2018-03-02T07:56:17.956Z,995.53
2018-03-02T07:57:17.971Z,995.50
2018-03-02T07:58:18.008Z,995.51
2018-03-02T07:59:17.967Z,995.52
2018-03-02T08:00:17.986Z,995.52
2018-03-02T08:01:18.017Z,995.48
2018-03-02T08:02:17.978Z,995.42
2018-03-02T08:03:18.012Z,995.47
2018-03-02T08:04:18.165Z,995.50
2018-03-02T08:05:17.982Z,995.43
2018-03-02T08:06:17.994Z,995.45
2018-03-02T08:07:17.984Z,995.48
2018-03-02T08:08:17.997Z,995.50
2018-03-02T08:09:17.992Z,995.42
2018-03-02T08:10:18.010Z,995.37
2018-03-02T08:11:18.026Z,995.42
2018-03-02T08:12:18.032Z,995.39
2018-03-02T08:13:18.021Z,995.35
2018-03-02T08:14:18.023Z,995.40
2018-03-02T08:15:18.031Z,995.45
2018-03-02T08:16:18.069Z,995.34
2018-03-02T08:17:18.039Z,995.39
2018-03-02T08:18:18.038Z,995.34
2018-03-02T08:19:18.064Z,995.32
2018-03-02T08:20:18.052Z,995.35
2018-03-02T08:21:18.061Z,995.45
2018-03-02T08:22:18.058Z,995.38
2018-03-02T08:23:18.071Z,995.41
2018-03-02T08:24:18.071Z,995.37
2018-03-02T08:25:18.083Z,995.45
2018-03-02T08:26:18.091Z,995.42
2018-03-02T08:27:18.100Z,995.50
2018-03-02T08:28:18.092Z,995.42
2018-03-02T08:29:18.115Z,995.43
2018-03-02T08:30:18.125Z,995.42
2018-03-02T08:31:18.114Z,995.41
2018-03-02T08:32:18.132Z,995.44
2018-03-02T08:33:18.127Z,995.29
2018-03-02T08:34:18.145Z,995.40
2018-03-02T08:35:18.157Z,995.36
2018-03-02T08:36:18.154Z,995.38
2018-03-02T08:37:18.158Z,995.47
2018-03-02T08:38:18.163Z,995.42
2018-03-02T08:39:18.171Z,995.43
2018-03-02T08:40:18.180Z,995.40
2018-03-02T08:41:18.251Z,995.47
2018-03-02T08:42:18.185Z,995.50
2018-03-02T08:43:18.221Z,995.46
2018-03-02T08:44:18.203Z,995.50
2018-03-02T08:45:18.261Z,995.45
2018-03-02T08:46:18.216Z,995.37
2018-03-02T08:47:18.236Z,995.37
2018-03-02T08:48:18.227Z,995.43
2018-03-02T08:49:18.235Z,995.39
2018-03-02T08:50:18.237Z,995.36
2018-03-02T08:51:18.261Z,995.36
2018-03-02T08:52:18.262Z,995.40
2018-03-02T08:53:18.268Z,995.42
2018-03-02T08:54:18.318Z,995.43
2018-03-02T08:55:18.275Z,995.40
2018-03-02T08:56:18.292Z,995.37
2018-03-02T08:57:18.300Z,995.35
2018-03-02T08:58:18.307Z,995.30
2018-03-02T08:59:18.316Z,995.24
2018-03-02T09:00:18.317Z,995.18
2018-03-02T09:01:18.331Z,995.21
2018-03-02T09:02:18.346Z,995.31
2018-03-02T09:03:18.353Z,995.28
2018-03-02T09:04:18.356Z,995.28
2018-03-02T09:05:18.421Z,995.32
2018-03-02T09:06:18.414Z,995.37
2018-03-02T09:07:18.387Z,995.31
2018-03-02T09:08:18.515Z,995.29
2018-03-02T09:09:18.408Z,995.29
2018-03-02T09:10:18.408Z,995.35
2018-03-02T09:11:18.415Z,995.31
2018-03-02T09:12:18.425Z,995.23
2018-03-02T09:13:18.440Z,995.26
2018-03-02T09:14:18.475Z,995.22
2018-03-02T09:15:18.451Z,995.25
2018-03-02T09:16:18.489Z,995.25
2018-03-02T09:17:18.489Z,995.25
2018-03-02T09:18:18.477Z,995.26
2018-03-02T09:19:18.485Z,995.26
2018-03-02T09:20:18.486Z,995.35
2018-03-02T09:21:18.517Z,995.22
2018-03-02T09:22:18.521Z,995.19
2018-03-02T09:23:18.538Z,995.21
2018-03-02T09:24:18.540Z,995.14
2018-03-02T09:25:18.554Z,995.14
2018-03-02T09:26:18.553Z,995.08
2018-03-02T09:27:18.575Z,995.12
2018-03-02T09:28:18.583Z,995.06
2018-03-02T09:29:18.608Z,994.97
2018-03-02T09:30:18.601Z,995.09
2018-03-02T09:31:18.611Z,995.07
2018-03-02T09:32:18.612Z,995.06
2018-03-02T09:33:18.617Z,995.06
2018-03-02T09:34:18.643Z,994.98
2018-03-02T09:35:18.640Z,994.95
2018-03-02T09:36:18.676Z,994.88
2018-03-02T09:37:18.689Z,994.90
2018-03-02T09:38:18.683Z,994.85
2018-03-02T09:39:18.694Z,994.82
2018-03-02T09:40:18.704Z,994.82
2018-03-02T09:41:18.698Z,994.84
2018-03-02T09:42:18.705Z,994.89
2018-03-02T09:43:18.762Z,994.88
2018-03-02T09:44:18.727Z,994.89
2018-03-02T09:45:18.741Z,994.89
2018-03-02T09:46:18.740Z,994.93
2018-03-02T09:47:18.745Z,994.90
2018-03-02T09:48:18.762Z,994.91
2018-03-02T09:49:18.767Z,994.81
2018-03-02T09:50:18.765Z,994.84
2018-03-02T09:51:18.778Z,994.92
2018-03-02T09:52:18.848Z,994.79
2018-03-02T09:53:18.790Z,994.85
2018-03-02T09:54:18.813Z,994.87
2018-03-02T09:55:18.860Z,994.77
2018-03-02T09:56:18.858Z,994.70
2018-03-02T09:57:18.840Z,994.78
2018-03-02T09:58:18.978Z,994.83
2018-03-02T09:59:18.868Z,994.88
2018-03-02T10:00:18.859Z,994.83
2018-03-02T10:01:18.876Z,994.90
2018-03-02T10:02:18.889Z,994.91
2018-03-02T10:03:18.895Z,994.89
2018-03-02T10:04:18.917Z,994.76
2018-03-02T10:05:18.927Z,994.82
2018-03-02T10:06:19.068Z,994.81
2018-03-02T10:07:18.954Z,994.83
2018-03-02T10:08:18.939Z,994.80
2018-03-02T10:09:18.961Z,994.90
2018-03-02T10:10:18.989Z,994.83
2018-03-02T10:11:18.981Z,994.85
2018-03-02T10:12:19.015Z,994.85
2018-03-02T10:13:19.032Z,994.95
2018-03-02T10:14:19.014Z,994.84
2018-03-02T10:15:19.042Z,994.79
2018-03-02T10:16:19.051Z,994.99
2018-03-02T10:17:19.103Z,994.80
2018-03-02T10:18:19.084Z,994.77
2018-03-02T10:19:19.074Z,994.79
2018-03-02T10:20:19.109Z,994.78
2018-03-02T10:21:19.163Z,994.66
2018-03-02T10:22:19.121Z,994.65
2018-03-02T10:23:19.195Z,994.73
2018-03-02T10:24:19.140Z,994.70
2018-03-02T10:25:19.141Z,994.70
2018-03-02T10:26:19.177Z,994.70
2018-03-02T10:27:19.180Z,994.70
2018-03-02T10:28:19.174Z,994.62
2018-03-02T10:29:19.193Z,994.65
2018-03-02T10:30:19.210Z,994.71
2018-03-02T10:31:19.230Z,994.59
2018-03-02T10:32:19.226Z,994.64
2018-03-02T10:33:19.239Z,994.60
2018-03-02T10:34:19.243Z,994.62
2018-03-02T10:35:19.272Z,994.62
2018-03-02T10:36:19.279Z,994.56
2018-03-02T10:37:19.333Z,994.67
2018-03-02T10:38:19.289Z,994.66
2018-03-02T10:39:19.317Z,994.60
2018-03-02T10:40:19.355Z,994.49
2018-03-02T10:41:19.370Z,994.64
2018-03-02T10:42:19.408Z,994.65
2018-03-02T10:43:19.379Z,994.60
2018-03-02T10:44:19.383Z,994.51
2018-03-02T10:45:19.394Z,994.57
2018-03-02T10:46:19.396Z,994.61
2018-03-02T10:47:19.430Z,994.70
2018-03-02T10:48:19.428Z,994.51
2018-03-02T10:49:19.426Z,994.48
2018-03-02T10:50:19.440Z,994.55
2018-03-02T10:51:19.460Z,994.55
2018-03-02T10:52:19.475Z,994.52
2018-03-02T10:53:19.506Z,994.58
2018-03-02T10:54:19.504Z,994.56
2018-03-02T10:55:19.511Z,994.56
2018-03-02T10:56:19.538Z,994.58
2018-03-02T10:57:19.531Z,994.58
2018-03-02T10:58:19.541Z,994.59
2018-03-02T10:59:19.550Z,994.62
2018-03-02T11:00:19.594Z,994.55
2018-03-02T11:01:19.632Z,994.57
2018-03-02T11:02:19.591Z,994.56
2018-03-02T11:03:19.599Z,994.53
2018-03-02T11:04:19.628Z,994.56
2018-03-02T11:05:19.623Z,994.48
2018-03-02T11:06:19.686Z,994.46
2018-03-02T11:07:19.709Z,994.52
2018-03-02T11:08:19.829Z,994.52
2018-03-02T11:09:19.691Z,994.49
2018-03-02T11:10:19.696Z,994.52
2018-03-02T11:11:19.737Z,994.54
2018-03-02T11:12:19.735Z,994.60
2018-03-02T11:13:19.869Z,994.62
2018-03-02T11:14:19.743Z,994.53
2018-03-02T11:15:19.784Z,994.49
2018-03-02T11:16:19.841Z,994.50
2018-03-02T11:17:19.775Z,994.53
2018-03-02T11:18:19.801Z,994.50
2018-03-02T11:19:19.800Z,994.51
2018-03-02T11:20:19.812Z,994.53
2018-03-02T11:21:19.868Z,994.50
2018-03-02T11:22:19.833Z,994.49
2018-03-02T11:23:19.911Z,994.48
2018-03-02T11:24:19.867Z,994.40
2018-03-02T11:25:19.897Z,994.31
2018-03-02T11:26:19.897Z,994.37
2018-03-02T11:27:19.908Z,994.41
2018-03-02T11:28:19.929Z,994.32
2018-03-02T11:29:19.934Z,994.31
2018-03-02T11:30:19.948Z,994.35
2018-03-02T11:31:19.960Z,994.27
2018-03-02T11:32:20.010Z,994.27
2018-03-02T11:33:19.984Z,994.24
2018-03-02T11:34:20.012Z,994.26
2018-03-02T11:35:20.032Z,994.20
2018-03-02T11:36:20.113Z,994.10
2018-03-02T11:37:20.032Z,994.18
2018-03-02T11:38:20.050Z,994.22
2018-03-02T11:39:20.240Z,994.18
2018-03-02T11:40:20.079Z,994.16
2018-03-02T11:41:20.082Z,994.12
2018-03-02T11:42:20.112Z,994.19
2018-03-02T11:43:20.119Z,994.22
2018-03-02T11:44:20.123Z,994.19
2018-03-02T11:45:20.136Z,994.20
2018-03-02T11:46:20.151Z,994.15
2018-03-02T11:47:20.169Z,994.22
2018-03-02T11:48:20.183Z,994.20
2018-03-02T11:49:20.195Z,994.20
2018-03-02T11:50:20.205Z,994.16
2018-03-02T11:51:20.234Z,994.20
2018-03-02T11:52:20.233Z,994.20
2018-03-02T11:53:20.247Z,994.10
2018-03-02T11:54:20.264Z,994.07
2018-03-02T11:55:20.285Z,994.09
2018-03-02T11:56:20.293Z,994.14
2018-03-02T11:57:20.302Z,994.11
2018-03-02T11:58:20.312Z,994.08
2018-03-02T11:59:20.323Z,994.20
2018-03-02T12:00:20.351Z,994.07
2018-03-02T12:01:20.349Z,994.11
2018-03-02T12:02:20.352Z,994.07
2018-03-02T12:03:20.387Z,994.09
2018-03-02T12:04:20.413Z,994.11
2018-03-02T12:05:20.398Z,994.09
2018-03-02T12:06:20.418Z,994.16
2018-03-02T12:07:20.427Z,994.13
2018-03-02T12:08:20.437Z,994.09
2018-03-02T12:09:20.492Z,994.12
2018-03-02T12:10:20.461Z,994.16
2018-03-02T12:11:20.612Z,994.18
2018-03-02T12:12:20.509Z,994.11
2018-03-02T12:13:20.508Z,994.01
2018-03-02T12:14:20.532Z,994.04
2018-03-02T12:15:20.552Z,994.02
2018-03-02T12:16:20.546Z,993.99
2018-03-02T12:17:20.553Z,993.99
2018-03-02T12:18:20.579Z,994.07
2018-03-02T12:19:20.588Z,993.97
2018-03-02T12:20:20.606Z,993.95
2018-03-02T12:21:20.714Z,994.02
2018-03-02T12:22:20.675Z,994.03
2018-03-02T12:23:20.635Z,993.98
2018-03-02T12:24:20.689Z,993.88
2018-03-02T12:25:20.670Z,993.95
2018-03-02T12:26:20.677Z,993.85
2018-03-02T12:27:20.689Z,993.87
2018-03-02T12:28:20.712Z,993.87